Time;durP1;ratioP1;P1;durP2;ratioP2;P2;SDS_P1;SDS_P2;PMS_P1;PMS_P2;Temp;Humidity;BMP_temperature;BMP_pressure;BME280_temperature;BME280_humidity;BME280_pressure;Samples;Min_cycle;Max_cycle;Signal;HPM_P1;HPM_P2
2022/12/19 07:16:55;;;;;;;0.00;0.00;;;;;;;;;;6239194;23;20031;-95
2022/12/19 07:19:21;;;;;;;0.10;0.10;;;3.20;99.90;;;;;;6216134;23;20043;-95
2022/12/19 07:21:47;;;;;;;0.00;0.00;;;3.20;99.90;;;;;;6244514;22;19992;-93
2022/12/19 07:24:14;;;;;;;0.00;0.00;;;3.20;99.90;;;;;;6242390;23;20020;-95
2022/12/19 07:26:41;;;;;;;0.03;0.03;;;3.20;99.90;;;;;;6243270;23;20072;-95
2022/12/19 07:29:10;;;;;;;0.00;0.00;;;3.20;99.90;;;;;;6270268;22;20112;-94
2022/12/19 07:31:36;;;;;;;0.05;0.05;;;;;;;;;;6244964;22;19992;-94
2022/12/19 07:34:02;;;;;;;0.00;0.00;;;;;;;;;;6245303;23;20132;-95
2022/12/19 07:36:28;;;;;;;0.10;0.10;;;;;;;;;;6246044;22;20140;-94
2022/12/19 07:38:54;;;;;;;0.10;0.10;;;;;;;;;;6246361;23;19996;-95
2022/12/19 07:41:20;;;;;;;0.08;0.08;;;;;;;;;;6244536;23;19996;-95
2022/12/19 07:43:46;;;;;;;0.10;0.10;;;;;;;;;;6244311;22;19992;-94
2022/12/19 07:46:12;;;;;;;0.10;0.10;;;;;;;;;;6244622;23;20034;-94
2022/12/19 07:48:38;;;;;;;0.10;0.10;;;;;;;;;;6245390;23;20015;-94
2022/12/19 07:51:04;;;;;;;0.10;0.10;;;;;;;;;;6242164;23;20004;-94
2022/12/19 07:53:30;;;;;;;0.10;0.10;;;;;;;;;;6243164;23;20004;-95
2022/12/19 07:55:56;;;;;;;0.10;0.10;;;;;;;;;;6240794;23;19992;-95
2022/12/19 07:58:22;;;;;;;0.10;0.10;;;;;;;;;;6241508;23;20062;-95
2022/12/19 08:00:59;;;;;;;0.10;0.10;;;3.60;99.90;;;;;;6243773;23;20007;-94
2022/12/19 08:03:25;;;;;;;0.10;0.10;;;;;;;;;;6244952;22;20004;-93
2022/12/19 08:05:51;;;;;;;0.10;0.10;;;;;;;;;;6243635;23;20003;-95
2022/12/19 08:08:17;;;;;;;0.10;0.10;;;;;;;;;;6243940;23;20064;-94
2022/12/19 08:10:43;;;;;;;0.10;0.10;;;;;;;;;;6245322;23;20008;-93
2022/12/19 08:13:14;;;;;;;0.08;0.08;;;;;;;;;;6232818;23;20004;-94
2022/12/19 08:15:40;;;;;;;0.08;0.08;;;;;;;;;;6243205;23;20016;-95
2022/12/19 08:18:06;;;;;;;0.10;0.10;;;;;;;;;;6243569;23;20064;-94
2022/12/19 08:20:33;;;;;;;0.10;0.10;;;;;;;;;;6243413;23;20011;-95
2022/12/19 08:22:59;;;;;;;0.00;0.00;;;;;;;;;;6245846;22;19988;-93
2022/12/19 08:25:25;;;;;;;0.10;0.10;;;;;;;;;;6246139;22;20003;-96
2022/12/19 08:27:51;;;;;;;0.10;0.10;;;;;;;;;;6244734;23;20072;-94
2022/12/19 08:30:17;;;;;;;0.10;0.10;;;;;;;;;;6242650;23;20014;-95
2022/12/19 08:32:44;;;;;;;0.10;0.10;;;;;;;;;;6242291;23;19995;-94
2022/12/19 08:35:10;;;;;;;0.10;0.10;;;;;;;;;;6240737;23;20095;-94
2022/12/19 08:37:36;;;;;;;0.10;0.10;;;;;;;;;;6239685;23;20000;-94
2022/12/19 08:40:02;;;;;;;0.10;0.00;;;;;;;;;;6239636;23;20190;-95
2022/12/19 08:42:28;;;;;;;0.10;0.10;;;;;;;;;;6242811;23;20079;-96
2022/12/19 08:44:54;;;;;;;0.10;0.10;;;4.30;99.90;;;;;;6242745;22;20019;-95
2022/12/19 08:47:19;;;;;;;0.10;0.10;;;;;;;;;;6243011;23;20040;-95
2022/12/19 08:49:45;;;;;;;0.00;0.00;;;;;;;;;;6243761;23;20004;-95
2022/12/19 08:52:11;;;;;;;0.10;0.10;;;4.30;99.90;;;;;;6241167;23;20004;-95
2022/12/19 08:54:37;;;;;;;0.10;0.10;;;4.30;99.90;;;;;;6242200;23;20007;-95
2022/12/19 08:57:03;;;;;;;0.10;0.10;;;;;;;;;;6243063;23;20012;-94
2022/12/19 08:59:29;;;;;;;0.10;0.10;;;;;;;;;;6242602;23;20003;-94
2022/12/19 09:01:55;;;;;;;0.10;0.10;;;;;;;;;;6243594;23;20008;-95
2022/12/19 09:04:21;;;;;;;0.10;0.10;;;4.40;99.90;;;;;;6240995;23;20008;-93
2022/12/19 09:06:47;;;;;;;0.00;0.00;;;;;;;;;;6235123;23;20521;-95
2022/12/19 09:09:13;;;;;;;0.10;0.10;;;;;;;;;;6239804;23;20043;-94
2022/12/19 09:11:39;;;;;;;0.00;0.00;;;;;;;;;;6244153;22;19988;-95
2022/12/19 09:14:05;;;;;;;0.10;0.10;;;;;;;;;;6238388;23;20027;-94
2022/12/19 09:16:31;;;;;;;0.00;0.00;;;;;;;;;;6242174;23;20004;-96
2022/12/19 09:18:57;;;;;;;0.10;0.10;;;;;;;;;;6240950;23;20004;-95
2022/12/19 09:21:25;;;;;;;0.10;0.10;;;4.80;99.90;;;;;;6242254;22;20012;-94
2022/12/19 09:23:56;;;;;;;0.10;0.10;;;4.80;99.90;;;;;;6231931;23;20006;-93
2022/12/19 09:26:23;;;;;;;0.10;0.10;;;4.90;99.90;;;;;;6233117;23;20001;-93
2022/12/19 09:28:51;;;;;;;0.08;0.08;;;4.80;99.90;;;;;;6226084;23;20000;-94
2022/12/19 09:31:22;;;;;;;0.10;0.10;;;4.90;99.90;;;;;;6229572;23;20000;-93
2022/12/19 09:33:48;;;;;;;0.10;0.10;;;;;;;;;;6232854;23;20026;-93
2022/12/19 09:36:18;;;;;;;0.10;0.10;;;5.00;99.90;;;;;;6233148;23;20012;-93
2022/12/19 09:38:44;;;;;;;0.10;0.10;;;;;;;;;;6232258;23;20000;-95
2022/12/19 09:41:33;;;;;;;0.10;0.10;;;5.10;99.90;;;;;;6234704;23;20005;-93
2022/12/19 09:44:18;;;;;;;0.10;0.10;;;5.20;99.90;;;;;;6234587;23;20050;-93
2022/12/19 09:46:54;;;;;;;0.10;0.10;;;5.20;99.90;;;;;;6228708;23;20199;-94
2022/12/19 09:49:25;;;;;;;0.00;0.00;;;5.20;99.90;;;;;;6231946;23;20008;-94
2022/12/19 09:52:07;;;;;;;0.10;0.10;;;5.30;99.90;;;;;;6230089;23;20279;-94
2022/12/19 09:54:38;;;;;;;0.10;0.10;;;5.40;99.90;;;;;;6230701;23;20072;-95
2022/12/19 09:57:10;;;;;;;0.10;0.10;;;5.40;99.90;;;;;;6229950;23;20004;-93
2022/12/19 09:59:45;;;;;;;0.10;0.10;;;5.50;99.90;;;;;;6230945;23;20012;-94
2022/12/19 10:02:54;;;;;;;0.10;0.10;;;5.60;99.90;;;;;;6227083;23;20000;-95
2022/12/19 10:05:40;;;;;;;0.10;0.10;;;5.80;99.90;;;;;;6166113;23;20004;-93
2022/12/19 10:08:17;;;;;;;0.10;0.10;;;5.80;99.90;;;;;;6233008;23;20012;-92
2022/12/19 10:10:52;;;;;;;0.10;0.10;;;5.80;99.90;;;;;;6235654;23;20015;-94
2022/12/19 10:13:36;;;;;;;0.10;0.10;;;5.90;99.90;;;;;;6232921;23;20008;-92
2022/12/19 10:16:35;;;;;;;0.10;0.10;;;5.90;99.90;;;;;;6233039;23;20456;-93
2022/12/19 10:19:07;;;;;;;0.10;0.10;;;6.00;99.90;;;;;;6229320;23;20479;-94
2022/12/19 10:22:05;;;;;;;0.10;0.10;;;6.10;99.90;;;;;;6232034;23;20000;-93
2022/12/19 10:24:54;;;;;;;0.10;0.10;;;6.10;99.90;;;;;;6233403;23;20000;-94
2022/12/19 10:27:20;;;;;;;0.10;0.10;;;;;;;;;;6232378;23;20008;-93
2022/12/19 10:30:12;;;;;;;0.10;0.10;;;6.10;99.90;;;;;;6233202;23;20031;-93
2022/12/19 10:32:57;;;;;;;0.10;0.10;;;6.20;99.90;;;;;;6233421;23;20012;-93
2022/12/19 10:35:29;;;;;;;0.10;0.10;;;6.20;99.90;;;;;;6232708;23;20012;-94
2022/12/19 10:37:59;;;;;;;0.10;0.10;;;6.20;99.90;;;;;;6235603;23;20024;-94
2022/12/19 10:40:24;;;;;;;;;;;7.60;99.90;;;;;;6238291;23;20005;-94
2022/12/19 10:42:57;;;;;;;0.10;0.10;;;6.20;99.90;;;;;;6235634;23;19963;-94
2022/12/19 10:45:35;;;;;;;0.08;0.08;;;6.30;99.90;;;;;;6111360;23;20264;-94
2022/12/19 10:48:01;;;;;;;0.10;0.10;;;;;;;;;;6146614;23;20012;-94
2022/12/19 10:50:29;;;;;;;0.10;0.10;;;6.20;99.90;;;;;;6134615;23;20033;-95
2022/12/19 10:53:06;;;;;;;0.10;0.10;;;6.20;99.90;;;;;;6145721;23;20029;-93
2022/12/19 10:55:42;;;;;;;0.10;0.10;;;6.20;99.90;;;;;;6136284;23;20010;-92
2022/12/19 10:58:21;;;;;;;0.00;0.00;;;6.20;99.90;;;;;;6137971;23;20057;-93
2022/12/19 11:01:10;;;;;;;0.10;0.10;;;6.20;99.90;;;;;;6141024;23;20021;-94
2022/12/19 11:03:37;;;;;;;0.10;0.10;;;;;;;;;;6140645;23;20237;-94
2022/12/19 11:06:03;;;;;;;0.00;0.00;;;;;;;;;;6143755;23;20015;-94
2022/12/19 11:08:35;;;;;;;0.10;0.10;;;6.30;99.90;;;;;;6140416;23;20010;-93
2022/12/19 11:11:03;;;;;;;0.10;0.10;;;6.40;99.90;;;;;;6140799;23;20056;-96
2022/12/19 11:13:46;;;;;;;0.10;0.10;;;6.40;99.90;;;;;;6142004;23;20005;-95
2022/12/19 11:16:19;;;;;;;0.10;0.10;;;6.40;99.90;;;;;;6139546;23;20065;-94
2022/12/19 11:18:47;;;;;;;0.10;0.10;;;6.40;99.90;;;;;;6138518;23;20025;-95
2022/12/19 11:21:13;;;;;;;0.10;0.10;;;;;;;;;;6139698;23;20002;-93
2022/12/19 11:23:54;;;;;;;0.10;0.10;;;6.40;99.90;;;;;;6139956;23;20005;-94
2022/12/19 11:26:40;;;;;;;0.05;0.05;;;6.40;99.90;;;;;;6133921;23;20037;-94
2022/12/19 11:29:39;;;;;;;0.00;0.00;;;6.40;99.90;;;;;;6135530;23;20009;-94
2022/12/19 11:32:05;;;;;;;0.10;0.10;;;;;;;;;;6144879;23;20097;-94
2022/12/19 11:34:35;;;;;;;0.10;0.10;;;6.50;99.90;;;;;;6141791;23;20017;-93
2022/12/19 11:37:01;;;;;;;0.10;0.10;;;;;;;;;;6133119;23;20005;-93
2022/12/19 11:39:44;;;;;;;0.10;0.10;;;6.60;99.90;;;;;;6140180;23;20061;-94
2022/12/19 11:42:24;;;;;;;0.10;0.10;;;6.60;99.90;;;;;;6139103;23;19998;-93
2022/12/19 11:45:16;;;;;;;0.10;0.10;;;6.70;99.90;;;;;;6134214;23;20002;-95
2022/12/19 11:47:49;;;;;;;0.10;0.10;;;6.80;99.90;;;;;;6140225;23;19989;-94
2022/12/19 11:50:29;;;;;;;0.10;0.10;;;6.50;99.90;;;;;;6136966;23;20145;-93
2022/12/19 11:53:04;;;;;;;0.10;0.10;;;6.80;99.90;;;;;;6137762;23;20001;-94
2022/12/19 11:55:59;;;;;;;0.10;0.10;;;7.00;99.90;;;;;;6132899;23;20088;-93
2022/12/19 11:58:28;;;;;;;0.10;0.10;;;7.00;99.90;;;;;;6133038;23;20088;-92
2022/12/19 12:01:36;;;;;;;0.10;0.10;;;7.00;99.90;;;;;;6133009;23;20009;-93
2022/12/19 12:04:30;;;;;;;0.10;0.10;;;7.10;99.90;;;;;;6142515;23;19982;-93
2022/12/19 12:06:56;;;;;;;0.08;0.08;;;;;;;;;;6144686;23;20274;-93
2022/12/19 12:09:37;;;;;;;0.10;0.10;;;7.30;99.90;;;;;;6139693;23;20013;-93
2022/12/19 12:12:25;;;;;;;0.10;0.10;;;7.30;99.90;;;;;;6141212;23;20006;-94
2022/12/19 12:15:14;;;;;;;0.00;0.00;;;7.30;99.90;;;;;;6134279;23;20013;-94
2022/12/19 12:18:08;;;;;;;0.10;0.10;;;7.20;99.90;;;;;;6129189;23;20006;-96
2022/12/19 12:20:35;;;;;;;0.10;0.10;;;;;;;;;;6130541;23;20010;-92
2022/12/19 12:23:34;;;;;;;0.10;0.10;;;7.20;99.90;;;;;;6130012;23;20149;-93
2022/12/19 12:26:03;;;;;;;0.10;0.10;;;7.20;99.90;;;;;;6133964;23;20048;-92
2022/12/19 12:29:18;;;;;;;0.10;0.10;;;7.20;99.90;;;;;;6136478;23;20013;-93
2022/12/19 12:31:44;;;;;;;0.10;0.10;;;;;;;;;;6134173;23;20002;-93
2022/12/19 12:34:41;;;;;;;0.10;0.10;;;7.20;99.90;;;;;;6136053;23;20012;-93
2022/12/19 12:37:31;;;;;;;0.10;0.10;;;7.20;99.90;;;;;;6134422;23;20006;-94
2022/12/19 12:40:25;;;;;;;0.10;0.10;;;7.20;99.90;;;;;;6136648;23;20017;-94
2022/12/19 12:43:00;;;;;;;0.10;0.10;;;7.20;99.90;;;;;;6131884;23;20006;-94
2022/12/19 12:45:46;;;;;;;0.08;0.08;;;7.30;99.90;;;;;;6125919;23;20013;-93
2022/12/19 12:48:19;;;;;;;0.10;0.10;;;7.40;99.90;;;;;;6134759;23;20044;-92
2022/12/19 12:50:48;;;;;;;0.10;0.10;;;7.40;99.90;;;;;;6137397;23;20060;-93
2022/12/19 12:53:18;;;;;;;0.10;0.10;;;7.40;99.90;;;;;;6136752;23;20009;-93
2022/12/19 12:55:44;;;;;;;0.10;0.10;;;7.50;99.90;;;;;;6130764;23;20037;-94
2022/12/19 12:58:38;;;;;;;0.10;0.10;;;7.40;99.90;;;;;;6151466;23;19993;-96
2022/12/19 13:01:23;;;;;;;0.10;0.10;;;7.40;99.90;;;;;;6136873;23;20437;-94
2022/12/19 13:04:01;;;;;;;0.10;0.10;;;7.50;99.90;;;;;;6128988;23;20052;-92
2022/12/19 13:06:36;;;;;;;0.10;0.10;;;7.50;99.90;;;;;;6131952;23;20260;-94
2022/12/19 13:09:08;;;;;;;0.10;0.10;;;7.50;99.90;;;;;;6131401;23;20065;-93
2022/12/19 13:14:33;;;;;;;;;;;8.90;99.90;;;;;;6163660;23;20032;-93
2022/12/19 13:16:59;;;;;;;0.10;0.10;;;;;;;;;;6138533;23;19936;-93
2022/12/19 13:19:27;;;;;;;0.10;0.10;;;7.50;99.90;;;;;;6138502;23;20056;-93
2022/12/19 13:22:08;;;;;;;0.10;0.10;;;7.60;99.90;;;;;;6140649;23;20008;-94
2022/12/19 13:24:45;;;;;;;0.10;0.10;;;7.70;99.90;;;;;;6137204;23;20006;-94
2022/12/19 13:27:38;;;;;;;0.10;0.10;;;7.70;99.90;;;;;;6143611;23;20124;-93
2022/12/19 18:12:24;;;;;;;0.10;0.10;;;7.20;99.90;;;;;;6193927;23;20005;-89
2022/12/19 19:18:06;;;;;;;0.10;0.10;;;7.30;99.90;;;;;;6194465;23;20005;-95
2022/12/19 19:20:36;;;;;;;0.10;0.10;;;7.40;99.90;;;;;;6165505;23;20001;-95
2022/12/19 19:23:08;;;;;;;0.10;0.10;;;7.40;99.90;;;;;;6184083;23;20048;-95
2022/12/19 19:25:38;;;;;;;0.10;0.10;;;;;;;;;;6183978;23;20027;-95
2022/12/19 21:47:55;;;;;;;0.10;0.10;;;;;;;;;;6172525;23;20021;-90
2022/12/19 21:50:32;;;;;;;0.10;0.10;;;7.80;99.90;;;;;;6179194;23;20005;-91
2022/12/19 21:53:01;;;;;;;0.10;0.10;;;;;;;;;;6176984;23;20020;-95
2022/12/19 21:55:27;;;;;;;0.10;0.10;;;;;;;;;;6178163;23;20001;-91
2022/12/19 21:57:53;;;;;;;0.10;0.10;;;;;;;;;;6177875;23;20001;-90
2022/12/19 22:03:43;;;;;;;0.10;0.10;;;7.90;99.90;;;;;;6208107;23;20000;-90
2022/12/19 22:06:19;;;;;;;0.10;0.10;;;7.90;99.90;;;;;;6179658;23;20278;-91
2022/12/19 22:08:51;;;;;;;0.10;0.10;;;;;;;;;;6177426;23;20073;-92
2022/12/19 22:18:51;;;;;;;0.10;0.10;;;7.80;99.90;;;;;;6117610;23;20029;-91
2022/12/19 22:50:45;;;;;;;0.10;0.10;;;8.00;99.90;;;;;;6100534;23;20029;-91
2022/12/19 22:56:51;;;;;;;0.10;0.10;;;8.10;99.90;;;;;;6177984;23;20043;-91
2022/12/19 22:59:17;;;;;;;0.10;0.10;;;;;;;;;;6179037;23;20001;-92
2022/12/19 23:01:43;;;;;;;0.10;0.10;;;;;;;;;;6177428;23;20024;-92
2022/12/19 23:04:12;;;;;;;0.10;0.10;;;8.00;99.90;;;;;;6176803;23;20008;-93
2022/12/19 23:06:38;;;;;;;0.10;0.10;;;;;;;;;;6176396;23;20012;-92
2022/12/19 23:09:07;;;;;;;0.10;0.10;;;8.00;99.90;;;;;;6171358;23;20009;-92
2022/12/19 23:11:37;;;;;;;0.10;0.10;;;8.10;99.90;;;;;;6176340;23;20005;-91
2022/12/19 23:14:05;;;;;;;0.10;0.10;;;8.20;99.90;;;;;;6178528;23;20063;-92
2022/12/19 23:19:31;;;;;;;0.10;0.10;;;;;;;;;;6206530;23;20051;-92
2022/12/19 23:22:18;;;;;;;0.10;0.10;;;8.10;99.90;;;;;;6207776;23;20001;-90
2022/12/19 23:25:10;;;;;;;0.10;0.10;;;8.10;99.90;;;;;;6180555;23;20024;-90
2022/12/19 23:54:41;;;;;;;0.10;0.10;;;8.50;99.90;;;;;;6190999;23;20029;-91
2022/12/19 23:57:07;;;;;;;0.10;0.10;;;;;;;;;;6175709;23;20335;-92
2022/12/19 23:59:33;;;;;;;0.10;0.10;;;8.60;99.90;;;;;;6175588;23;20088;-91
